Time;durP1;ratioP1;P1;durP2;ratioP2;P2;SDS_P1;SDS_P2;PMS_P1;PMS_P2;Temp;Humidity;BMP_temperature;BMP_pressure;BME280_temperature;BME280_humidity;BME280_pressure;Samples;Min_cycle;Max_cycle;Signal;HPM_P1;HPM_P2
2023/11/26 00:00:38;;;;;;;4.70;2.60;;;;;;;0.00;100.00;99664.47;5043892;56;1135380;-75
2023/11/26 00:05:45;;;;;;;6.95;2.22;;;;;;;-0.07;100.00;99666.51;5131832;56;1134530;-75
2023/11/26 00:10:51;;;;;;;7.77;3.30;;;;;;;-0.04;100.00;99665.52;5126620;56;1136581;-71
2023/11/26 00:15:56;;;;;;;6.23;2.47;;;;;;;-0.15;100.00;99671.66;5125826;56;1136769;-72
2023/11/26 00:21:02;;;;;;;9.90;4.00;;;;;;;-0.23;100.00;99679.84;5146803;56;1136653;-75
2023/11/26 00:26:08;;;;;;;6.37;3.22;;;;;;;-0.31;100.00;99690.22;5126913;56;1136713;-70
2023/11/26 00:31:16;;;;;;;10.27;3.43;;;;;;;-0.31;100.00;99701.91;5125752;56;1136709;-73
2023/11/26 00:36:22;;;;;;;9.13;3.70;;;;;;;-0.32;100.00;99705.42;5146442;56;1138659;-77
2023/11/26 00:41:28;;;;;;;6.87;2.97;;;;;;;-0.37;100.00;99709.06;5126801;56;1136682;-76
2023/11/26 00:46:33;;;;;;;7.50;3.57;;;;;;;-0.44;100.00;99710.23;5071064;56;1136749;-71
2023/11/26 00:51:39;;;;;;;9.27;2.37;;;;;;;-0.49;100.00;99723.06;5065711;56;1141470;-74
2023/11/26 00:56:45;;;;;;;10.10;5.33;;;;;;;-0.54;100.00;99723.72;5060784;57;1136716;-67
2023/11/26 01:01:50;;;;;;;10.50;3.50;;;;;;;-0.55;100.00;99732.42;5057876;57;1138883;-75
2023/11/26 01:06:56;;;;;;;6.77;2.77;;;;;;;-0.54;100.00;99738.00;5043038;56;1138685;-77
2023/11/26 01:12:01;;;;;;;6.40;3.03;;;;;;;-0.54;100.00;99747.09;4997710;57;1136719;-67
2023/11/26 01:17:07;;;;;;;5.50;3.07;;;;;;;-0.58;100.00;99747.67;5090387;57;1136467;-72
2023/11/26 01:22:12;;;;;;;5.83;3.23;;;;;;;-0.57;100.00;99748.06;5026350;57;1136451;-76
2023/11/26 01:27:18;;;;;;;4.43;2.67;;;;;;;-0.59;100.00;99749.89;5062330;57;1136669;-74
2023/11/26 01:32:24;;;;;;;3.47;2.00;;;;;;;-0.64;100.00;99751.86;5102516;56;1136828;-79
2023/11/26 01:37:30;;;;;;;6.87;3.80;;;;;;;-0.65;100.00;99752.77;5157997;56;1136879;-71
2023/11/26 01:42:35;;;;;;;4.58;2.30;;;;;;;-0.68;100.00;99761.98;5227452;56;1137147;-73
2023/11/26 01:47:42;;;;;;;5.70;2.37;;;;;;;-0.67;100.00;99757.64;5234167;56;1136748;-75
2023/11/26 01:52:50;;;;;;;6.28;2.50;;;;;;;-0.71;100.00;99752.58;5140605;57;1136632;-73
2023/11/26 01:57:56;;;;;;;7.17;3.17;;;;;;;-0.80;100.00;99766.42;5140602;57;1136610;-73
2023/11/26 02:03:01;;;;;;;4.17;2.20;;;;;;;-0.83;100.00;99763.95;5136371;57;1137505;-73
2023/11/26 02:08:07;;;;;;;3.37;2.10;;;;;;;-0.85;100.00;99772.25;5191871;56;1137132;-76
2023/11/26 02:13:12;;;;;;;6.40;2.50;;;;;;;-0.92;100.00;99774.73;5201331;56;1136982;-75
2023/11/26 02:18:19;;;;;;;5.70;2.43;;;;;;;-0.94;100.00;99772.66;5226927;56;1137037;-79
2023/11/26 02:23:24;;;;;;;6.75;2.55;;;;;;;-0.99;100.00;99774.59;5205351;56;1136485;-69
2023/11/26 02:28:30;;;;;;;4.23;2.43;;;;;;;-1.03;100.00;99777.77;5230170;56;1136627;-73
2023/11/26 02:33:36;;;;;;;8.70;2.63;;;;;;;-1.08;100.00;99783.17;5195330;56;1136375;-79
2023/11/26 02:38:42;;;;;;;6.80;2.73;;;;;;;-1.13;100.00;99782.96;5215548;56;1136884;-76
2023/11/26 02:43:47;;;;;;;8.00;2.77;;;;;;;-1.14;100.00;99792.50;5107706;56;1137009;-75
2023/11/26 02:48:53;;;;;;;3.13;2.10;;;;;;;-1.17;100.00;99792.62;5137589;56;1136938;-72
2023/11/26 02:53:58;;;;;;;8.00;3.07;;;;;;;-1.27;100.00;99797.80;5232778;56;1137161;-76
2023/11/26 02:59:04;;;;;;;6.97;2.47;;;;;;;-1.27;100.00;99797.80;5155785;56;1136706;-72
2023/11/26 03:04:10;;;;;;;5.20;2.33;;;;;;;-1.31;100.00;99803.17;5198460;56;1136594;-79
2023/11/26 03:12:56;;;;;;;5.43;2.03;;;;;;;-1.28;100.00;99815.56;5219651;56;1136739;-71
2023/11/26 03:14:23;;;;;;;4.43;3.17;;;;;;;-1.31;100.00;99814.39;5201866;56;1136328;-75
2023/11/26 03:19:29;;;;;;;5.43;2.17;;;;;;;-1.25;100.00;99823.69;5183158;56;1136443;-72
2023/11/26 03:24:35;;;;;;;9.70;2.45;;;;;;;-1.31;100.00;99816.98;5120449;56;1136711;-74
2023/11/26 03:29:41;;;;;;;5.13;2.57;;;;;;;-1.36;100.00;99819.36;5173493;55;1136821;-79
2023/11/26 03:34:48;;;;;;;3.30;2.10;;;;;;;-1.35;100.00;99830.12;5159749;56;1136722;-78
2023/11/26 03:39:54;;;;;;;6.67;2.40;;;;;;;-1.40;100.00;99839.41;5110010;56;1136916;-81
2023/11/26 03:45:00;;;;;;;4.07;2.10;;;;;;;-1.46;100.00;99849.56;5141023;56;1136696;-72
2023/11/26 03:50:14;;;;;;;3.17;1.93;;;;;;;-1.50;100.00;99857.05;5016124;57;1136745;-73
2023/11/26 03:55:16;;;;;;;3.27;1.83;;;;;;;-1.52;100.00;99864.50;5046164;56;1136854;-77
2023/11/26 04:00:22;;;;;;;7.70;1.80;;;;;;;-1.55;100.00;99864.64;4974614;57;1136676;-79
2023/11/26 04:05:27;;;;;;;5.05;1.92;;;;;;;-1.59;100.00;99865.66;5018405;57;1136314;-73
2023/11/26 04:10:34;;;;;;;5.97;1.97;;;;;;;-1.62;100.00;99865.31;5052437;56;1136614;-70
2023/11/26 04:15:54;;;;;;;1.95;1.50;;;;;;;-1.64;100.00;99874.89;5060116;57;1136870;-75
2023/11/26 04:20:47;;;;;;;2.33;1.60;;;;;;;-1.64;100.00;99876.20;5074357;57;1136852;-79
2023/11/26 04:25:53;;;;;;;5.53;1.30;;;;;;;-1.71;100.00;99878.64;5002790;57;1136602;-77
2023/11/26 04:30:59;;;;;;;1.72;1.62;;;;;;;-1.72;100.00;99881.29;5050542;57;1136896;-75
2023/11/26 04:36:06;;;;;;;2.20;2.00;;;;;;;-1.78;100.00;99887.53;5035203;57;1136694;-73
2023/11/26 04:41:11;;;;;;;4.10;2.27;;;;;;;-1.80;100.00;99899.25;4937012;57;1136587;-82
2023/11/26 04:46:17;;;;;;;4.67;2.30;;;;;;;-1.83;100.00;99902.40;5020209;57;1136749;-81
2023/11/26 04:51:23;;;;;;;2.90;2.03;;;;;;;-1.81;100.00;99903.20;5093835;57;1136578;-74
2023/11/26 04:56:28;;;;;;;4.50;2.03;;;;;;;-1.80;100.00;99905.73;5031418;57;1136630;-76
2023/11/26 05:01:48;;;;;;;3.27;1.90;;;;;;;-1.84;100.00;99904.17;5053415;57;1136773;-83
2023/11/26 05:06:48;;;;;;;4.12;2.30;;;;;;;-1.87;100.00;99913.36;5093441;57;1136552;-82
2023/11/26 05:11:53;;;;;;;4.70;2.07;;;;;;;-1.88;100.00;99922.03;5008547;57;1136517;-78
2023/11/26 05:16:59;;;;;;;5.53;2.37;;;;;;;-1.96;100.00;99916.71;5142230;56;1140796;-78
2023/11/26 05:22:05;;;;;;;4.57;2.10;;;;;;;-1.96;100.00;99916.71;5091351;57;1136920;-73
2023/11/26 05:27:10;;;;;;;4.80;2.10;;;;;;;-1.96;100.00;99931.81;5092702;57;1137024;-73
2023/11/26 05:32:16;;;;;;;4.43;1.97;;;;;;;-1.96;100.00;99929.67;5046529;56;1137062;-71
2023/11/26 05:37:21;;;;;;;4.67;1.80;;;;;;;-1.99;100.00;99943.61;5126288;56;1136917;-81
2023/11/26 05:42:28;;;;;;;3.53;1.90;;;;;;;-1.99;100.00;99947.94;5142011;56;1136600;-80
2023/11/26 05:47:33;;;;;;;3.40;1.92;;;;;;;-2.03;100.00;99951.53;5099170;56;1136382;-72
2023/11/26 05:52:39;;;;;;;4.20;2.53;;;;;;;-2.04;100.00;99957.61;4967134;57;1136666;-80
2023/11/26 05:57:45;;;;;;;3.87;2.00;;;;;;;-2.07;100.00;99968.92;4962496;58;1136887;-78
2023/11/26 06:02:51;;;;;;;3.53;1.80;;;;;;;-2.05;100.00;99970.16;5062960;57;1136750;-80
2023/11/26 06:07:56;;;;;;;5.37;2.20;;;;;;;-2.08;100.00;99974.16;5104702;55;1136806;-81
2023/11/26 06:13:02;;;;;;;5.80;1.80;;;;;;;-2.12;100.00;99979.88;5099096;56;1136821;-76
2023/11/26 06:18:07;;;;;;;2.47;1.80;;;;;;;-2.15;100.00;99982.60;5108590;56;1136736;-78
2023/11/26 06:23:13;;;;;;;5.35;2.00;;;;;;;-2.17;100.00;99985.69;5134011;55;1136404;-78
2023/11/26 06:28:18;;;;;;;2.50;1.90;;;;;;;-2.16;100.00;99994.71;5128630;55;1136719;-81
2023/11/26 06:33:24;;;;;;;5.43;2.67;;;;;;;-2.22;100.00;100000.53;5133103;55;1137059;-72
2023/11/26 06:38:29;;;;;;;3.53;2.10;;;;;;;-2.25;100.00;100001.92;5082868;56;1138763;-81
2023/11/26 06:43:35;;;;;;;8.77;3.60;;;;;;;-2.27;100.00;100011.04;5105729;56;1138992;-81
2023/11/26 06:48:40;;;;;;;4.43;2.83;;;;;;;-2.26;100.00;100015.32;5075450;56;1138995;-77
2023/11/26 06:53:47;;;;;;;3.73;1.93;;;;;;;-2.29;100.00;100015.89;5088971;55;1138643;-69
2023/11/26 06:58:53;;;;;;;8.30;3.50;;;;;;;-2.35;100.00;100023.41;5121777;55;1138521;-69
2023/11/26 07:03:58;;;;;;;5.42;2.55;;;;;;;-2.40;100.00;100024.00;5132578;56;1138807;-73
2023/11/26 07:09:08;;;;;;;4.97;3.00;;;;;;;-2.37;100.00;100025.20;5145236;55;1138878;-73
2023/11/26 07:14:13;;;;;;;9.30;4.63;;;;;;;-2.35;100.00;100027.73;5121854;56;1138666;-80
2023/11/26 07:19:20;;;;;;;7.90;2.97;;;;;;;-2.28;100.00;100031.36;5172876;55;1138459;-77
2023/11/26 07:24:25;;;;;;;9.53;2.93;;;;;;;-2.18;100.00;100031.92;5133441;55;1138869;-76
2023/11/26 07:29:34;;;;;;;17.00;4.27;;;;;;;-2.12;100.00;100037.72;5018957;57;1138823;-73
2023/11/26 07:34:41;;;;;;;19.45;6.53;;;;;;;-2.02;100.00;100038.28;5112514;56;1140747;-75
2023/11/26 07:39:47;;;;;;;24.17;6.97;;;;;;;-1.93;100.00;100040.99;5112435;56;1141033;-73
2023/11/26 07:44:52;;;;;;;18.97;6.57;;;;;;;-1.84;100.00;100041.98;5166833;56;1140769;-79
2023/11/26 07:49:58;;;;;;;51.88;13.68;;;;;;;-1.70;100.00;100053.17;4988051;56;1140974;-77
2023/11/26 07:55:10;;;;;;;21.20;5.80;;;;;;;-1.56;100.00;100056.12;5025410;57;1142935;-74
2023/11/26 08:00:14;;;;;;;9.55;4.22;;;;;;;-1.45;100.00;100060.02;5115530;56;1140825;-77
2023/11/26 08:05:21;;;;;;;36.95;11.10;;;;;;;-1.25;100.00;100067.54;5061918;56;1138880;-71
2023/11/26 08:10:28;;;;;;;20.20;6.80;;;;;;;-1.17;100.00;100062.90;5037520;56;1142967;-72
2023/11/26 08:15:34;;;;;;;12.60;4.50;;;;;;;-1.05;100.00;100068.92;5002997;57;1140948;-71
2023/11/26 08:20:41;;;;;;;10.97;3.70;;;;;;;-0.84;100.00;100078.96;5142168;56;1140997;-71
2023/11/26 08:25:47;;;;;;;59.13;27.67;;;;;;;-0.76;100.00;100089.44;5106387;56;1140984;-75
2023/11/26 08:30:53;;;;;;;13.83;8.83;;;;;;;-0.82;100.00;100097.48;5050493;56;1143371;-70
2023/11/26 08:36:02;;;;;;;14.47;6.33;;;;;;;-0.88;100.00;100104.19;5109491;56;1140729;-76
2023/11/26 08:41:08;;;;;;;30.83;16.53;;;;;;;-0.89;100.00;100100.34;5047579;56;1140987;-73
2023/11/26 08:46:16;;;;;;;7.93;4.07;;;;;;;-0.83;100.00;100099.67;5063759;56;1143147;-71
2023/11/26 08:51:22;;;;;;;14.67;6.67;;;;;;;-0.85;100.00;100110.56;5077857;55;1138790;-70
2023/11/26 08:56:27;;;;;;;18.40;7.97;;;;;;;-0.84;100.00;100112.27;5047094;56;1141174;-71
2023/11/26 09:01:33;;;;;;;373.37;140.13;;;;;;;-0.80;100.00;100112.55;5041811;56;1140936;-73
2023/11/26 09:06:39;;;;;;;100.33;40.98;;;;;;;-0.85;100.00;100114.45;5041914;56;1147317;-71
2023/11/26 09:11:46;;;;;;;32.50;14.27;;;;;;;-0.86;100.00;100121.00;5061912;57;1145063;-71
2023/11/26 09:16:52;;;;;;;40.37;14.87;;;;;;;-0.87;100.00;100123.20;5044758;56;1142948;-75
2023/11/26 09:22:02;;;;;;;16.80;6.75;;;;;;;-0.86;100.00;100127.49;5126044;56;1143026;-76
2023/11/26 09:27:06;;;;;;;42.93;20.30;;;;;;;-0.79;100.00;100128.97;5145496;56;1140940;-76
2023/11/26 09:32:11;;;;;;;16.53;9.10;;;;;;;-0.72;100.00;100139.51;5124969;56;1143146;-71
2023/11/26 09:37:17;;;;;;;6.57;4.37;;;;;;;-0.62;100.00;100138.28;5124187;56;1140936;-77
2023/11/26 09:42:23;;;;;;;11.83;5.75;;;;;;;-0.56;100.00;100143.22;5144761;56;1138803;-76
2023/11/26 09:47:29;;;;;;;6.43;3.33;;;;;;;-0.53;100.00;100135.77;5047513;56;1140785;-78
2023/11/26 09:52:37;;;;;;;14.90;6.03;;;;;;;-0.52;100.00;100142.20;4961680;56;1138662;-76
2023/11/26 09:57:42;;;;;;;10.30;5.60;;;;;;;-0.42;100.00;100134.89;5045698;55;1141024;-76
2023/11/26 10:02:51;;;;;;;10.27;4.93;;;;;;;-0.28;100.00;100136.95;5060537;56;1140972;-72
2023/11/26 10:07:56;;;;;;;10.10;4.13;;;;;;;-0.18;100.00;100129.20;5066424;56;1140824;-75
2023/11/26 10:13:08;;;;;;;20.67;9.37;;;;;;;-0.04;100.00;100127.74;5111659;56;1140933;-75
2023/11/26 10:18:13;;;;;;;32.27;15.50;;;;;;;-0.08;100.00;100122.72;5145462;56;1140957;-69
2023/11/26 10:23:35;;;;;;;15.83;6.83;;;;;;;-0.17;100.00;100123.10;5125998;56;1143022;-72
2023/11/26 10:28:34;;;;;;;11.53;5.17;;;;;;;-0.19;100.00;100124.45;5125367;56;1141001;-73
2023/11/26 10:33:40;;;;;;;9.73;4.47;;;;;;;-0.15;100.00;100119.51;5032167;57;1140909;-70
2023/11/26 10:38:45;;;;;;;15.03;8.67;;;;;;;0.00;100.00;100121.48;5140716;55;1138932;-70
2023/11/26 10:43:54;;;;;;;11.53;5.13;;;;;;;0.20;100.00;100126.33;5125510;56;1138969;-73
2023/11/26 10:49:04;;;;;;;15.47;7.87;;;;;;;0.23;100.00;100132.72;5125220;56;1138987;-75
2023/11/26 10:54:49;;;;;;;15.97;5.53;;;;;;;0.23;100.00;100132.72;5146926;56;1138680;-75
2023/11/26 10:59:59;;;;;;;14.67;4.97;;;;;;;0.27;100.00;100126.48;4998726;57;1139069;-73
2023/11/26 11:05:09;;;;;;;14.60;6.00;;;;;;;0.30;100.00;100127.66;4935548;58;1138817;-73
2023/11/26 11:10:42;;;;;;;21.13;7.23;;;;;;;0.33;100.00;100133.55;4930095;57;1203995;-76
2023/11/26 11:15:49;;;;;;;14.27;7.83;;;;;;;0.38;100.00;100121.67;4883714;57;1138788;-75
2023/11/26 11:21:12;;;;;;;7.57;5.27;;;;;;;0.50;100.00;100117.24;4948755;57;1139108;-75
2023/11/26 11:26:25;;;;;;;10.20;5.53;;;;;;;0.76;100.00;100119.19;4957260;57;1136932;-76
2023/11/26 11:31:58;;;;;;;15.15;8.40;;;;;;;1.02;100.00;100113.21;4953484;57;1138826;-73
2023/11/26 11:37:03;;;;;;;8.33;3.50;;;;;;;1.30;100.00;100106.73;5094153;56;1138928;-76
2023/11/26 11:42:11;;;;;;;9.53;3.67;;;;;;;1.47;100.00;100114.63;5042629;56;1136770;-74
2023/11/26 11:47:42;;;;;;;6.43;3.70;;;;;;;1.30;100.00;100119.31;5042482;57;1136871;-73
2023/11/26 11:52:56;;;;;;;9.77;4.20;;;;;;;1.23;100.00;100110.53;5050384;56;1136663;-76
2023/11/26 11:58:12;;;;;;;7.57;3.57;;;;;;;1.46;100.00;100118.59;5068735;56;1136659;-77
2023/11/26 12:03:18;;;;;;;15.87;4.80;;;;;;;1.63;100.00;100119.96;5081517;57;1136677;-77
2023/11/26 12:08:24;;;;;;;11.75;3.98;;;;;;;1.51;100.00;100113.57;5092395;56;1139065;-76
2023/11/26 12:13:29;;;;;;;12.55;4.12;;;;;;;1.22;100.00;100113.59;5043184;57;1138812;-77
2023/11/26 12:18:35;;;;;;;13.80;5.83;;;;;;;1.16;100.00;100116.49;5078015;55;1138774;-71
2023/11/26 12:23:41;;;;;;;10.70;5.17;;;;;;;1.52;100.00;100117.02;5110708;56;1138714;-77
2023/11/26 12:28:48;;;;;;;9.70;4.33;;;;;;;1.37;100.00;100119.42;5053617;56;1138783;-74
2023/11/26 12:33:55;;;;;;;10.77;3.80;;;;;;;1.79;100.00;100117.47;5132944;55;1136711;-72
2023/11/26 12:39:03;;;;;;;24.05;5.03;;;;;;;2.33;100.00;100112.60;5143074;56;1138765;-76
2023/11/26 12:44:08;;;;;;;21.70;4.83;;;;;;;2.39;100.00;100106.62;5137970;56;1138693;-74
2023/11/26 12:49:19;;;;;;;8.70;3.00;;;;;;;2.26;100.00;100116.45;5136067;56;1138901;-76
2023/11/26 12:54:26;;;;;;;4.15;2.25;;;;;;;2.71;100.00;100112.81;5151334;56;1136581;-77
2023/11/26 12:59:46;;;;;;;5.17;2.50;;;;;;;3.09;100.00;100112.09;5120670;56;1136634;-76
2023/11/26 13:04:52;;;;;;;4.23;1.23;;;;;;;3.41;100.00;100113.43;5083135;56;1136650;-72
2023/11/26 13:10:00;;;;;;;4.80;2.90;;;;;;;2.42;100.00;100116.91;5054353;56;1136753;-73
2023/11/26 13:15:06;;;;;;;3.90;2.27;;;;;;;2.12;100.00;100124.97;5074441;56;1136778;-78
2023/11/26 13:20:14;;;;;;;4.22;1.80;;;;;;;1.87;100.00;100133.12;5052457;56;1136473;-72
2023/11/26 13:25:19;;;;;;;7.33;2.37;;;;;;;1.45;100.00;100142.97;5102920;56;1136719;-72
2023/11/26 13:30:25;;;;;;;4.92;2.15;;;;;;;1.01;100.00;100134.95;5120693;56;1136668;-73
2023/11/26 13:35:30;;;;;;;2.63;2.10;;;;;;;0.78;100.00;100125.15;5052433;56;1136599;-72
2023/11/26 13:40:39;;;;;;;6.25;3.05;;;;;;;0.60;100.00;100120.31;5042639;56;1137098;-77
2023/11/26 13:45:44;;;;;;;7.37;2.43;;;;;;;0.52;100.00;100106.31;4995153;57;1136808;-75
2023/11/26 13:50:51;;;;;;;3.77;1.60;;;;;;;0.44;100.00;100114.07;4997942;57;1136966;-77
2023/11/26 13:55:56;;;;;;;8.40;1.50;;;;;;;0.37;100.00;100126.48;4959251;58;1136875;-73
2023/11/26 14:01:02;;;;;;;3.70;1.90;;;;;;;0.30;100.00;100140.67;5094051;56;1136651;-75
2023/11/26 14:06:09;;;;;;;4.00;2.00;;;;;;;0.20;100.00;100142.78;5146798;56;1136726;-77
2023/11/26 14:11:19;;;;;;;2.60;1.97;;;;;;;0.14;100.00;100156.51;5126398;56;1136898;-71
2023/11/26 14:16:22;;;;;;;2.57;1.80;;;;;;;0.10;100.00;100160.13;5126847;56;1136746;-74
2023/11/26 14:21:27;;;;;;;4.00;1.73;;;;;;;0.04;100.00;100156.47;5146588;56;1136695;-77
2023/11/26 14:26:33;;;;;;;6.33;1.98;;;;;;;0.00;100.00;100154.47;5125563;56;1136635;-76
2023/11/26 14:31:39;;;;;;;5.37;1.95;;;;;;;-0.04;100.00;100149.84;5125027;56;1136893;-73
2023/11/26 14:36:46;;;;;;;4.83;2.93;;;;;;;-0.09;100.00;100142.67;5058634;56;1138835;-73
2023/11/26 14:41:51;;;;;;;6.83;2.30;;;;;;;-0.15;100.00;100150.70;4943159;58;1138737;-77
2023/11/26 14:46:57;;;;;;;8.03;3.50;;;;;;;-0.18;100.00;100161.23;5034874;57;1138664;-73
2023/11/26 14:52:08;;;;;;;5.50;2.20;;;;;;;-0.21;100.00;100164.41;4988388;58;1138728;-74
2023/11/26 14:57:10;;;;;;;3.83;2.17;;;;;;;-0.22;100.00;100165.30;5104030;56;1138792;-74
2023/11/26 15:02:16;;;;;;;3.03;2.23;;;;;;;-0.28;100.00;100157.28;5082614;56;1138748;-78
2023/11/26 15:07:21;;;;;;;3.67;1.93;;;;;;;-0.30;100.00;100149.15;5056279;57;1138587;-73
2023/11/26 15:12:27;;;;;;;3.72;2.08;;;;;;;-0.32;100.00;100144.49;4972329;58;1138663;-74
2023/11/26 15:17:32;;;;;;;4.15;2.60;;;;;;;-0.37;100.00;100154.61;5044826;56;1138635;-77
2023/11/26 15:22:40;;;;;;;4.63;2.43;;;;;;;-0.34;100.00;100157.55;5032473;57;1138828;-77
2023/11/26 15:27:45;;;;;;;11.57;5.97;;;;;;;-0.33;100.00;100155.79;5066531;57;1138586;-77
2023/11/26 15:32:51;;;;;;;18.83;7.97;;;;;;;-0.32;100.00;100156.19;5091258;56;1140870;-77
2023/11/26 15:37:56;;;;;;;45.45;14.40;;;;;;;-0.31;100.00;100158.73;4959912;58;1140696;-75
2023/11/26 15:43:04;;;;;;;36.97;9.87;;;;;;;-0.34;100.00;100159.30;5144523;55;1142848;-72
2023/11/26 15:48:09;;;;;;;23.83;8.33;;;;;;;-0.36;100.00;100164.09;5055616;56;1140919;-76
2023/11/26 15:53:15;;;;;;;8.37;4.13;;;;;;;-0.36;100.00;100160.20;5063173;55;1141147;-76
2023/11/26 15:58:23;;;;;;;5.95;3.27;;;;;;;-0.41;100.00;100153.47;5166583;55;1138589;-71
2023/11/26 16:03:29;;;;;;;7.95;3.87;;;;;;;-0.42;100.00;100164.77;5127656;55;1138837;-73
2023/11/26 16:08:34;;;;;;;8.30;3.45;;;;;;;-0.44;100.00;100172.62;5096243;55;1138631;-77
2023/11/26 16:13:40;;;;;;;4.85;2.85;;;;;;;-0.44;100.00;100171.77;5117075;56;1138641;-75
2023/11/26 16:18:46;;;;;;;5.23;3.77;;;;;;;-0.47;100.00;100172.76;5147179;56;1138550;-76
2023/11/26 16:23:51;;;;;;;8.07;4.27;;;;;;;-0.46;100.00;100173.13;5125848;56;1138961;-78
2023/11/26 16:28:57;;;;;;;14.75;5.58;;;;;;;-0.49;100.00;100171.12;5125954;55;1139047;-73
2023/11/26 16:34:03;;;;;;;7.60;3.97;;;;;;;-0.52;100.00;100168.63;5145896;55;1140817;-74
2023/11/26 16:39:13;;;;;;;9.73;4.23;;;;;;;-0.54;100.00;100173.03;5042660;56;1139080;-79
2023/11/26 16:44:20;;;;;;;6.43;4.10;;;;;;;-0.53;100.00;100179.92;5042726;56;1138671;-69
2023/11/26 16:49:25;;;;;;;7.50;3.23;;;;;;;-0.56;100.00;100176.13;5114521;56;1144823;-76
2023/11/26 16:54:31;;;;;;;8.00;4.00;;;;;;;-0.56;100.00;100178.73;5140504;56;1138936;-72
2023/11/26 16:59:36;;;;;;;10.13;4.67;;;;;;;-0.58;100.00;100168.40;5140294;56;1138647;-75
2023/11/26 17:04:42;;;;;;;12.50;5.23;;;;;;;-0.63;100.00;100169.05;5139394;56;1140947;-76
2023/11/26 17:09:47;;;;;;;10.83;3.80;;;;;;;-0.63;100.00;100169.05;5158341;56;1141134;-79
2023/11/26 17:14:53;;;;;;;11.68;5.40;;;;;;;-0.65;100.00;100167.41;5126161;56;1140807;-72
2023/11/26 17:19:59;;;;;;;8.68;4.67;;;;;;;-0.67;100.00;100167.91;5126256;56;1140844;-76
2023/11/26 17:25:05;;;;;;;12.47;4.53;;;;;;;-0.66;100.00;100167.85;5154896;56;1138821;-79
2023/11/26 17:30:11;;;;;;;15.27;6.13;;;;;;;-0.68;100.00;100177.45;5092139;55;1141077;-76
2023/11/26 17:35:17;;;;;;;10.97;4.30;;;;;;;-0.69;100.00;100164.52;5117401;55;1140957;-73
2023/11/26 17:40:22;;;;;;;8.53;3.87;;;;;;;-0.73;100.00;100155.53;5144588;55;1259632;-72
2023/11/26 17:45:28;;;;;;;5.87;3.45;;;;;;;-0.75;100.00;100154.74;5124762;56;1138638;-77
2023/11/26 17:50:34;;;;;;;10.00;4.23;;;;;;;-0.78;100.00;100170.46;5123714;55;1138949;-73
2023/11/26 17:55:42;;;;;;;12.18;5.28;;;;;;;-0.81;100.00;100171.02;5126926;56;1141046;-77
2023/11/26 18:00:48;;;;;;;14.97;4.17;;;;;;;-0.83;100.00;100168.47;5138577;56;1140895;-75
2023/11/26 18:05:53;;;;;;;9.03;3.70;;;;;;;-0.83;100.00;100163.73;5117103;56;1140911;-76
2023/11/26 18:10:59;;;;;;;14.30;5.10;;;;;;;-0.88;100.00;100170.38;5086665;56;1140310;-79
2023/11/26 18:16:09;;;;;;;10.37;4.30;;;;;;;-0.92;100.00;100167.97;5146528;56;1140827;-78
2023/11/26 18:21:15;;;;;;;8.10;3.43;;;;;;;-0.97;100.00;100166.83;5125169;56;1140717;-75
2023/11/26 18:26:20;;;;;;;9.30;3.17;;;;;;;-0.99;100.00;100163.44;5042899;55;1138804;-77
2023/11/26 18:31:26;;;;;;;7.83;3.67;;;;;;;-1.02;100.00;100160.10;5061984;56;1138900;-75
2023/11/26 18:36:32;;;;;;;12.80;4.40;;;;;;;-1.03;100.00;100156.66;5045349;56;1138788;-77
2023/11/26 18:41:37;;;;;;;6.12;3.02;;;;;;;-1.09;100.00;100152.55;5072651;56;1141096;-75
2023/11/26 18:46:43;;;;;;;5.87;2.80;;;;;;;-1.07;100.00;100151.20;5129118;55;1138681;-73
2023/11/26 18:51:49;;;;;;;9.30;3.27;;;;;;;-1.13;100.00;100139.28;5153944;55;1138838;-76
2023/11/26 18:56:57;;;;;;;9.97;4.00;;;;;;;-1.15;100.00;100144.12;5137560;56;1138593;-74
2023/11/26 19:02:02;;;;;;;13.10;4.87;;;;;;;-1.18;100.00;100154.16;5135915;56;1138770;-77
2023/11/26 19:07:08;;;;;;;9.67;4.23;;;;;;;-1.19;100.00;100147.28;5138628;56;1140672;-70
2023/11/26 19:12:13;;;;;;;9.07;3.80;;;;;;;-1.21;100.00;100147.78;5105939;56;1138854;-72
2023/11/26 19:17:19;;;;;;;15.87;6.67;;;;;;;-1.24;100.00;100147.91;5106653;56;1139051;-78
2023/11/26 19:22:26;;;;;;;8.00;3.95;;;;;;;-1.26;100.00;100147.11;5144260;56;1141281;-78
2023/11/26 19:27:31;;;;;;;7.62;3.45;;;;;;;-1.33;100.00;100142.17;5106418;56;1138778;-78
2023/11/26 19:32:37;;;;;;;9.83;4.65;;;;;;;-1.34;100.00;100140.03;5126405;55;1139025;-76
2023/11/26 19:37:42;;;;;;;12.33;3.80;;;;;;;-1.37;100.00;100134.09;5127389;55;1138942;-78
2023/11/26 19:42:48;;;;;;;13.40;4.60;;;;;;;-1.39;100.00;100132.88;5138487;55;1141237;-78
2023/11/26 19:47:54;;;;;;;9.03;3.97;;;;;;;-1.38;100.00;100129.39;5116652;56;1140813;-73
2023/11/26 19:53:18;;;;;;;13.17;3.93;;;;;;;-1.38;100.00;100135.87;5124399;55;1138790;-74
2023/11/26 19:58:25;;;;;;;8.13;3.90;;;;;;;-1.36;100.00;100142.28;5141748;56;1140859;-75
2023/11/26 20:03:30;;;;;;;9.10;4.25;;;;;;;-1.35;100.00;100131.00;5126007;55;1138838;-76
2023/11/26 20:08:36;;;;;;;9.28;5.05;;;;;;;-1.31;100.00;100131.30;5122049;55;1138670;-73
2023/11/26 20:13:42;;;;;;;9.05;5.08;;;;;;;-1.30;100.00;100134.30;5126531;55;1138876;-74
2023/11/26 20:18:48;;;;;;;12.43;5.23;;;;;;;-1.30;100.00;100129.95;5132560;55;1138654;-77
2023/11/26 20:23:53;;;;;;;13.30;5.00;;;;;;;-1.31;100.00;100126.11;5078575;55;1140993;-73
2023/11/26 20:28:59;;;;;;;11.38;5.45;;;;;;;-1.29;100.00;100129.50;5053639;56;1140758;-80
2023/11/26 20:34:05;;;;;;;8.60;4.40;;;;;;;-1.28;100.00;100122.12;5100775;55;1140514;-81
2023/11/26 20:39:11;;;;;;;11.43;6.03;;;;;;;-1.29;100.00;100125.16;5078974;56;1138784;-76
2023/11/26 20:44:17;;;;;;;10.37;5.07;;;;;;;-1.30;100.00;100122.63;5081597;56;1140732;-76
2023/11/26 20:49:22;;;;;;;10.30;5.30;;;;;;;-1.31;100.00;100112.69;5105432;56;1140658;-82
2023/11/26 20:54:28;;;;;;;17.37;7.17;;;;;;;-1.33;100.00;100117.09;5073522;56;1140699;-79
2023/11/26 20:59:37;;;;;;;14.43;6.27;;;;;;;-1.31;100.00;100111.84;5070932;55;1140626;-77
2023/11/26 21:04:46;;;;;;;14.90;4.42;;;;;;;-1.31;100.00;100113.99;5064750;56;1141015;-75
2023/11/26 21:09:52;;;;;;;12.90;4.93;;;;;;;-1.32;100.00;100108.86;5089569;56;1140750;-71
2023/11/26 21:14:57;;;;;;;12.17;5.60;;;;;;;-1.36;100.00;100104.67;5074152;56;1140691;-77
2023/11/26 21:20:03;;;;;;;13.00;5.30;;;;;;;-1.40;100.00;100108.30;5046070;56;1140943;-80
2023/11/26 21:25:09;;;;;;;12.50;5.20;;;;;;;-1.43;100.00;100111.39;5125048;56;1140682;-74
2023/11/26 21:30:15;;;;;;;9.37;4.70;;;;;;;-1.43;100.00;100104.06;5083502;56;1140833;-75
2023/11/26 21:35:20;;;;;;;9.23;4.63;;;;;;;-1.43;100.00;100099.72;5128496;56;1139125;-74
2023/11/26 21:40:26;;;;;;;15.43;4.83;;;;;;;-1.45;100.00;100101.96;5120067;55;1138848;-81
2023/11/26 21:45:31;;;;;;;11.30;5.10;;;;;;;-1.49;100.00;100093.44;5166579;55;1140982;-75
2023/11/26 21:50:37;;;;;;;11.45;5.10;;;;;;;-1.47;100.00;100089.50;4990715;57;1140927;-78
2023/11/26 21:55:46;;;;;;;14.33;4.85;;;;;;;-1.44;100.00;100090.69;5092800;56;1140935;-75
2023/11/26 22:00:53;;;;;;;12.33;4.53;;;;;;;-1.44;100.00;100085.05;5136065;56;1140999;-78
2023/11/26 22:05:59;;;;;;;7.27;4.00;;;;;;;-1.46;100.00;100079.52;5080673;56;1141152;-75
2023/11/26 22:11:04;;;;;;;9.80;4.60;;;;;;;-1.43;100.00;100077.67;5133094;56;1138735;-74
2023/11/26 22:16:15;;;;;;;10.00;4.53;;;;;;;-1.41;100.00;100077.62;5114991;56;1138789;-81
2023/11/26 22:21:22;;;;;;;11.03;4.73;;;;;;;-1.39;100.00;100068.04;5083738;56;1140677;-74
2023/11/26 22:26:29;;;;;;;13.62;4.87;;;;;;;-1.34;100.00;100072.59;5141850;56;1140587;-76
2023/11/26 22:31:35;;;;;;;20.95;7.78;;;;;;;-1.30;100.00;100078.07;5134273;56;1141123;-77
2023/11/26 22:36:40;;;;;;;395.60;81.67;;;;;;;-1.25;100.00;100083.10;5086251;56;1140770;-73
2023/11/26 22:41:59;;;;;;;458.30;91.63;;;;;;;-1.23;100.00;100075.66;5101841;56;1145162;-77
2023/11/26 22:47:05;;;;;;;183.27;31.93;;;;;;;-1.20;100.00;100075.98;5140704;56;1145005;-73
2023/11/26 22:52:11;;;;;;;25.80;7.20;;;;;;;-1.18;100.00;100075.47;5109812;56;1144785;-72
2023/11/26 22:57:16;;;;;;;15.47;6.13;;;;;;;-1.20;100.00;100070.79;5042358;56;1141117;-75